sensor_id;sensor_type;location;lat;lon;timestamp;temperature;humidity
31783;DHT22;18351;47.560;9.708;2022-10-17T00:00:59;11.90;99.90
31783;DHT22;18351;47.560;9.708;2022-10-17T00:03:25;11.90;99.90
31783;DHT22;18351;47.560;9.708;2022-10-17T00:05:50;11.90;99.90
31783;DHT22;18351;47.560;9.708;2022-10-17T00:08:16;11.90;99.90
31783;DHT22;18351;47.560;9.708;2022-10-17T00:10:42;11.80;99.90
31783;DHT22;18351;47.560;9.708;2022-10-17T00:13:08;11.70;99.90
31783;DHT22;18351;47.560;9.708;2022-10-17T00:15:33;11.60;99.90
31783;DHT22;18351;47.560;9.708;2022-10-17T00:17:59;11.60;99.90
31783;DHT22;18351;47.560;9.708;2022-10-17T00:20:25;11.60;99.90
31783;DHT22;18351;47.560;9.708;2022-10-17T00:22:50;11.70;99.90
31783;DHT22;18351;47.560;9.708;2022-10-17T00:25:16;11.70;99.90
31783;DHT22;18351;47.560;9.708;2022-10-17T00:27:41;11.70;99.90
31783;DHT22;18351;47.560;9.708;2022-10-17T00:30:09;11.80;99.90
31783;DHT22;18351;47.560;9.708;2022-10-17T00:32:35;11.70;99.90
31783;DHT22;18351;47.560;9.708;2022-10-17T00:35:00;11.60;99.90
31783;DHT22;18351;47.560;9.708;2022-10-17T00:37:26;11.60;99.90
31783;DHT22;18351;47.560;9.708;2022-10-17T00:39:52;11.60;99.90
31783;DHT22;18351;47.560;9.708;2022-10-17T00:42:18;11.40;99.90
31783;DHT22;18351;47.560;9.708;2022-10-17T00:47:13;11.30;99.90
31783;DHT22;18351;47.560;9.708;2022-10-17T00:49:40;11.20;99.90
31783;DHT22;18351;47.560;9.708;2022-10-17T00:52:10;11.20;99.90
31783;DHT22;18351;47.560;9.708;2022-10-17T00:54:38;11.10;99.90
31783;DHT22;18351;47.560;9.708;2022-10-17T00:57:05;11.10;99.90
31783;DHT22;18351;47.560;9.708;2022-10-17T00:59:33;11.10;99.90
31783;DHT22;18351;47.560;9.708;2022-10-17T01:02:04;11.10;99.90
31783;DHT22;18351;47.560;9.708;2022-10-17T01:04:30;11.10;99.90
31783;DHT22;18351;47.560;9.708;2022-10-17T01:06:56;11.10;99.90
31783;DHT22;18351;47.560;9.708;2022-10-17T01:09:21;11.10;99.90
31783;DHT22;18351;47.560;9.708;2022-10-17T01:25:04;11.00;99.90
31783;DHT22;18351;47.560;9.708;2022-10-17T01:27:32;11.00;99.90
31783;DHT22;18351;47.560;9.708;2022-10-17T01:32:38;10.80;99.90
31783;DHT22;18351;47.560;9.708;2022-10-17T01:35:11;10.80;99.90
31783;DHT22;18351;47.560;9.708;2022-10-17T01:37:47;10.80;99.90
31783;DHT22;18351;47.560;9.708;2022-10-17T01:40:57;10.80;99.90
31783;DHT22;18351;47.560;9.708;2022-10-17T01:47:53;10.70;99.90
31783;DHT22;18351;47.560;9.708;2022-10-17T01:50:22;10.70;99.90
31783;DHT22;18351;47.560;9.708;2022-10-17T01:52:52;10.70;99.90
31783;DHT22;18351;47.560;9.708;2022-10-17T01:55:22;10.70;99.90
31783;DHT22;18351;47.560;9.708;2022-10-17T01:57:50;10.70;99.90
31783;DHT22;18351;47.560;9.708;2022-10-17T02:00:18;10.60;99.90
31783;DHT22;18351;47.560;9.708;2022-10-17T02:02:45;10.70;99.90
31783;DHT22;18351;47.560;9.708;2022-10-17T02:05:12;10.70;99.90
31783;DHT22;18351;47.560;9.708;2022-10-17T02:07:39;10.70;99.90
31783;DHT22;18351;47.560;9.708;2022-10-17T02:10:07;10.60;99.90
31783;DHT22;18351;47.560;9.708;2022-10-17T02:26:00;10.40;99.90
31783;DHT22;18351;47.560;9.708;2022-10-17T02:28:30;10.40;99.90
31783;DHT22;18351;47.560;9.708;2022-10-17T02:31:01;10.50;99.90
31783;DHT22;18351;47.560;9.708;2022-10-17T02:33:28;10.50;99.90
31783;DHT22;18351;47.560;9.708;2022-10-17T02:35:57;10.40;99.90
31783;DHT22;18351;47.560;9.708;2022-10-17T02:38:24;10.40;99.90
31783;DHT22;18351;47.560;9.708;2022-10-17T02:40:50;10.30;99.90
31783;DHT22;18351;47.560;9.708;2022-10-17T02:43:17;10.30;99.90
31783;DHT22;18351;47.560;9.708;2022-10-17T02:45:43;10.30;99.90
31783;DHT22;18351;47.560;9.708;2022-10-17T02:48:11;10.30;99.90
31783;DHT22;18351;47.560;9.708;2022-10-17T02:50:42;10.30;99.90
31783;DHT22;18351;47.560;9.708;2022-10-17T02:53:10;10.30;99.90
31783;DHT22;18351;47.560;9.708;2022-10-17T02:55:40;10.30;99.90
31783;DHT22;18351;47.560;9.708;2022-10-17T02:58:07;10.40;99.90
31783;DHT22;18351;47.560;9.708;2022-10-17T03:00:36;10.40;99.90
31783;DHT22;18351;47.560;9.708;2022-10-17T03:03:03;10.50;99.90
31783;DHT22;18351;47.560;9.708;2022-10-17T03:05:42;10.50;99.90
31783;DHT22;18351;47.560;9.708;2022-10-17T03:08:07;10.50;99.90
31783;DHT22;18351;47.560;9.708;2022-10-17T03:10:33;10.50;99.90
31783;DHT22;18351;47.560;9.708;2022-10-17T03:12:58;10.40;99.90
31783;DHT22;18351;47.560;9.708;2022-10-17T03:15:24;10.40;99.90
31783;DHT22;18351;47.560;9.708;2022-10-17T03:17:49;10.40;99.90
31783;DHT22;18351;47.560;9.708;2022-10-17T03:20:14;10.40;99.90
31783;DHT22;18351;47.560;9.708;2022-10-17T03:22:40;10.40;99.90
31783;DHT22;18351;47.560;9.708;2022-10-17T03:25:05;10.40;99.90
31783;DHT22;18351;47.560;9.708;2022-10-17T03:27:31;10.40;99.90
31783;DHT22;18351;47.560;9.708;2022-10-17T03:29:57;10.50;99.90
31783;DHT22;18351;47.560;9.708;2022-10-17T03:32:22;10.50;99.90
31783;DHT22;18351;47.560;9.708;2022-10-17T03:34:48;10.30;99.90
31783;DHT22;18351;47.560;9.708;2022-10-17T03:37:13;10.20;99.90
31783;DHT22;18351;47.560;9.708;2022-10-17T03:39:39;10.10;99.90
31783;DHT22;18351;47.560;9.708;2022-10-17T03:42:04;10.10;99.90
31783;DHT22;18351;47.560;9.708;2022-10-17T03:44:30;10.10;99.90
31783;DHT22;18351;47.560;9.708;2022-10-17T03:46:56;10.00;99.90
31783;DHT22;18351;47.560;9.708;2022-10-17T03:49:22;10.00;99.90
31783;DHT22;18351;47.560;9.708;2022-10-17T03:51:47;10.00;99.90
31783;DHT22;18351;47.560;9.708;2022-10-17T03:54:12;9.90;99.90
31783;DHT22;18351;47.560;9.708;2022-10-17T03:56:38;9.80;99.90
31783;DHT22;18351;47.560;9.708;2022-10-17T03:59:05;9.80;99.90
31783;DHT22;18351;47.560;9.708;2022-10-17T04:01:30;9.80;99.90
31783;DHT22;18351;47.560;9.708;2022-10-17T04:03:56;9.80;99.90
31783;DHT22;18351;47.560;9.708;2022-10-17T04:06:22;9.80;99.90
31783;DHT22;18351;47.560;9.708;2022-10-17T04:08:48;9.90;99.90
31783;DHT22;18351;47.560;9.708;2022-10-17T04:11:15;9.80;99.90
31783;DHT22;18351;47.560;9.708;2022-10-17T04:13:41;9.80;99.90
31783;DHT22;18351;47.560;9.708;2022-10-17T04:16:07;9.70;99.90
31783;DHT22;18351;47.560;9.708;2022-10-17T04:18:33;9.70;99.90
31783;DHT22;18351;47.560;9.708;2022-10-17T04:21:04;9.60;99.90
31783;DHT22;18351;47.560;9.708;2022-10-17T04:23:31;9.70;99.90
31783;DHT22;18351;47.560;9.708;2022-10-17T04:25:56;9.70;99.90
31783;DHT22;18351;47.560;9.708;2022-10-17T04:28:23;9.70;99.90
31783;DHT22;18351;47.560;9.708;2022-10-17T04:30:55;9.70;99.90
31783;DHT22;18351;47.560;9.708;2022-10-17T04:33:21;9.70;99.90
31783;DHT22;18351;47.560;9.708;2022-10-17T04:35:53;9.60;99.90
31783;DHT22;18351;47.560;9.708;2022-10-17T04:38:19;9.50;99.90
31783;DHT22;18351;47.560;9.708;2022-10-17T04:40:44;9.50;99.90
31783;DHT22;18351;47.560;9.708;2022-10-17T04:43:10;9.50;99.90
31783;DHT22;18351;47.560;9.708;2022-10-17T04:45:35;9.50;99.90
31783;DHT22;18351;47.560;9.708;2022-10-17T04:48:01;9.50;99.90
31783;DHT22;18351;47.560;9.708;2022-10-17T04:50:26;9.40;99.90
31783;DHT22;18351;47.560;9.708;2022-10-17T04:52:51;9.50;99.90
31783;DHT22;18351;47.560;9.708;2022-10-17T04:55:17;9.40;99.90
31783;DHT22;18351;47.560;9.708;2022-10-17T04:57:42;9.40;99.90
31783;DHT22;18351;47.560;9.708;2022-10-17T05:00:08;9.50;99.90
31783;DHT22;18351;47.560;9.708;2022-10-17T05:02:34;9.40;99.90
31783;DHT22;18351;47.560;9.708;2022-10-17T05:04:59;9.40;99.90
31783;DHT22;18351;47.560;9.708;2022-10-17T05:07:25;9.30;99.90
31783;DHT22;18351;47.560;9.708;2022-10-17T05:09:50;9.30;99.90
31783;DHT22;18351;47.560;9.708;2022-10-17T05:12:15;9.30;99.90
31783;DHT22;18351;47.560;9.708;2022-10-17T05:14:41;9.30;99.90
31783;DHT22;18351;47.560;9.708;2022-10-17T05:17:07;9.30;99.90
31783;DHT22;18351;47.560;9.708;2022-10-17T05:19:32;9.20;99.90
31783;DHT22;18351;47.560;9.708;2022-10-17T05:21:58;9.30;99.90
31783;DHT22;18351;47.560;9.708;2022-10-17T05:24:23;9.30;99.90
31783;DHT22;18351;47.560;9.708;2022-10-17T05:26:49;9.30;99.90
31783;DHT22;18351;47.560;9.708;2022-10-17T05:29:15;9.30;99.90
31783;DHT22;18351;47.560;9.708;2022-10-17T05:31:40;9.40;99.90
31783;DHT22;18351;47.560;9.708;2022-10-17T05:34:06;9.30;99.90
31783;DHT22;18351;47.560;9.708;2022-10-17T05:36:31;9.30;99.90
31783;DHT22;18351;47.560;9.708;2022-10-17T05:38:57;9.30;99.90
31783;DHT22;18351;47.560;9.708;2022-10-17T05:41:22;9.30;99.90
31783;DHT22;18351;47.560;9.708;2022-10-17T05:43:48;9.40;99.90
31783;DHT22;18351;47.560;9.708;2022-10-17T05:46:14;9.50;99.90
31783;DHT22;18351;47.560;9.708;2022-10-17T05:48:39;9.50;99.90
31783;DHT22;18351;47.560;9.708;2022-10-17T05:51:06;9.40;99.90
31783;DHT22;18351;47.560;9.708;2022-10-17T05:53:33;9.40;99.90
31783;DHT22;18351;47.560;9.708;2022-10-17T05:55:59;9.30;99.90
31783;DHT22;18351;47.560;9.708;2022-10-17T05:58:25;9.30;99.90
31783;DHT22;18351;47.560;9.708;2022-10-17T06:00:51;9.30;99.90
31783;DHT22;18351;47.560;9.708;2022-10-17T06:03:16;9.30;99.90
31783;DHT22;18351;47.560;9.708;2022-10-17T06:05:42;9.30;99.90
31783;DHT22;18351;47.560;9.708;2022-10-17T06:08:07;9.30;99.90
31783;DHT22;18351;47.560;9.708;2022-10-17T06:10:33;9.40;99.90
31783;DHT22;18351;47.560;9.708;2022-10-17T06:12:58;9.50;99.90
31783;DHT22;18351;47.560;9.708;2022-10-17T06:15:24;9.50;99.90
31783;DHT22;18351;47.560;9.708;2022-10-17T06:17:49;9.50;99.90
31783;DHT22;18351;47.560;9.708;2022-10-17T06:20:15;9.50;99.90
31783;DHT22;18351;47.560;9.708;2022-10-17T06:22:40;9.50;99.90
31783;DHT22;18351;47.560;9.708;2022-10-17T06:25:06;9.50;99.90
31783;DHT22;18351;47.560;9.708;2022-10-17T06:27:31;9.50;99.90
31783;DHT22;18351;47.560;9.708;2022-10-17T06:29:57;9.60;99.90
31783;DHT22;18351;47.560;9.708;2022-10-17T06:32:22;9.60;99.90
31783;DHT22;18351;47.560;9.708;2022-10-17T06:34:48;9.70;99.90
31783;DHT22;18351;47.560;9.708;2022-10-17T06:37:13;9.80;99.90
31783;DHT22;18351;47.560;9.708;2022-10-17T06:39:39;9.90;99.90
31783;DHT22;18351;47.560;9.708;2022-10-17T06:42:04;10.00;99.90
31783;DHT22;18351;47.560;9.708;2022-10-17T06:44:30;10.00;99.90
31783;DHT22;18351;47.560;9.708;2022-10-17T06:46:56;10.10;99.90
31783;DHT22;18351;47.560;9.708;2022-10-17T06:49:22;10.10;99.90
31783;DHT22;18351;47.560;9.708;2022-10-17T06:51:47;10.20;99.90
31783;DHT22;18351;47.560;9.708;2022-10-17T06:54:13;10.20;99.90
31783;DHT22;18351;47.560;9.708;2022-10-17T06:56:39;10.30;99.90
31783;DHT22;18351;47.560;9.708;2022-10-17T06:59:04;10.40;99.90
31783;DHT22;18351;47.560;9.708;2022-10-17T07:01:30;10.40;99.90
31783;DHT22;18351;47.560;9.708;2022-10-17T07:03:56;10.50;99.90
31783;DHT22;18351;47.560;9.708;2022-10-17T07:06:21;10.60;99.90
31783;DHT22;18351;47.560;9.708;2022-10-17T07:08:48;10.70;99.90
31783;DHT22;18351;47.560;9.708;2022-10-17T07:11:15;10.80;99.90
31783;DHT22;18351;47.560;9.708;2022-10-17T07:13:41;10.90;99.90
31783;DHT22;18351;47.560;9.708;2022-10-17T07:16:07;11.00;99.90
31783;DHT22;18351;47.560;9.708;2022-10-17T07:18:33;11.10;99.90
31783;DHT22;18351;47.560;9.708;2022-10-17T07:20:59;11.30;99.90
31783;DHT22;18351;47.560;9.708;2022-10-17T07:23:24;11.50;99.90
31783;DHT22;18351;47.560;9.708;2022-10-17T07:25:50;11.70;99.90
31783;DHT22;18351;47.560;9.708;2022-10-17T07:28:15;11.90;99.90
31783;DHT22;18351;47.560;9.708;2022-10-17T07:30:41;12.10;99.90
31783;DHT22;18351;47.560;9.708;2022-10-17T07:33:07;12.30;99.90
31783;DHT22;18351;47.560;9.708;2022-10-17T07:35:32;12.40;99.90
31783;DHT22;18351;47.560;9.708;2022-10-17T07:37:58;12.60;99.90
31783;DHT22;18351;47.560;9.708;2022-10-17T07:40:23;12.70;99.90
31783;DHT22;18351;47.560;9.708;2022-10-17T07:42:48;12.80;99.90
31783;DHT22;18351;47.560;9.708;2022-10-17T07:45:14;12.90;99.90
31783;DHT22;18351;47.560;9.708;2022-10-17T07:47:40;13.00;99.90
31783;DHT22;18351;47.560;9.708;2022-10-17T07:50:06;13.10;99.90
31783;DHT22;18351;47.560;9.708;2022-10-17T07:52:31;13.30;99.90
31783;DHT22;18351;47.560;9.708;2022-10-17T07:54:57;13.40;99.90
31783;DHT22;18351;47.560;9.708;2022-10-17T07:57:23;13.50;99.90
31783;DHT22;18351;47.560;9.708;2022-10-17T07:59:49;13.50;99.90
31783;DHT22;18351;47.560;9.708;2022-10-17T08:02:25;13.60;99.90
31783;DHT22;18351;47.560;9.708;2022-10-17T08:04:51;13.80;99.90
31783;DHT22;18351;47.560;9.708;2022-10-17T08:07:17;13.90;99.90
31783;DHT22;18351;47.560;9.708;2022-10-17T08:09:44;14.00;99.90
31783;DHT22;18351;47.560;9.708;2022-10-17T08:12:09;14.00;99.90
31783;DHT22;18351;47.560;9.708;2022-10-17T08:14:35;14.00;99.90
31783;DHT22;18351;47.560;9.708;2022-10-17T08:17:00;14.10;99.90
31783;DHT22;18351;47.560;9.708;2022-10-17T08:19:26;14.20;99.90
31783;DHT22;18351;47.560;9.708;2022-10-17T08:21:51;14.30;99.90
31783;DHT22;18351;47.560;9.708;2022-10-17T08:24:18;14.30;99.90
31783;DHT22;18351;47.560;9.708;2022-10-17T08:26:44;14.40;99.90
31783;DHT22;18351;47.560;9.708;2022-10-17T08:29:13;14.40;99.90
31783;DHT22;18351;47.560;9.708;2022-10-17T08:31:38;14.40;99.90
31783;DHT22;18351;47.560;9.708;2022-10-17T08:34:04;14.50;99.90
31783;DHT22;18351;47.560;9.708;2022-10-17T08:36:29;14.60;99.90
31783;DHT22;18351;47.560;9.708;2022-10-17T08:38:55;14.60;99.90
31783;DHT22;18351;47.560;9.708;2022-10-17T08:41:35;14.70;99.90
31783;DHT22;18351;47.560;9.708;2022-10-17T08:46:43;14.90;99.90
31783;DHT22;18351;47.560;9.708;2022-10-17T08:51:53;15.10;99.90
31783;DHT22;18351;47.560;9.708;2022-10-17T08:54:22;15.20;99.90
31783;DHT22;18351;47.560;9.708;2022-10-17T08:56:51;15.20;99.90
31783;DHT22;18351;47.560;9.708;2022-10-17T08:59:26;15.20;99.90
31783;DHT22;18351;47.560;9.708;2022-10-17T09:07:09;15.40;99.90
31783;DHT22;18351;47.560;9.708;2022-10-17T09:09:43;15.50;99.90
31783;DHT22;18351;47.560;9.708;2022-10-17T09:14:52;15.40;99.90
31783;DHT22;18351;47.560;9.708;2022-10-17T09:19:55;15.50;99.90
31783;DHT22;18351;47.560;9.708;2022-10-17T09:22:22;15.60;99.90
31783;DHT22;18351;47.560;9.708;2022-10-17T09:24:50;15.60;99.90
31783;DHT22;18351;47.560;9.708;2022-10-17T09:27:32;15.60;99.90
31783;DHT22;18351;47.560;9.708;2022-10-17T09:30:09;15.70;99.90
31783;DHT22;18351;47.560;9.708;2022-10-17T09:32:39;15.70;99.90
31783;DHT22;18351;47.560;9.708;2022-10-17T09:35:11;15.80;99.90
31783;DHT22;18351;47.560;9.708;2022-10-17T09:37:37;15.90;99.90
31783;DHT22;18351;47.560;9.708;2022-10-17T09:40:04;16.00;99.90
31783;DHT22;18351;47.560;9.708;2022-10-17T09:42:31;15.90;99.90
31783;DHT22;18351;47.560;9.708;2022-10-17T09:49:53;16.10;99.90
31783;DHT22;18351;47.560;9.708;2022-10-17T09:54:51;16.10;99.90
31783;DHT22;18351;47.560;9.708;2022-10-17T09:57:18;16.20;99.90
31783;DHT22;18351;47.560;9.708;2022-10-17T09:59:45;16.30;99.90
31783;DHT22;18351;47.560;9.708;2022-10-17T10:04:48;16.40;99.90
31783;DHT22;18351;47.560;9.708;2022-10-17T10:07:15;16.50;99.90
31783;DHT22;18351;47.560;9.708;2022-10-17T10:09:44;16.60;99.90
31783;DHT22;18351;47.560;9.708;2022-10-17T10:12:15;16.60;99.90
31783;DHT22;18351;47.560;9.708;2022-10-17T10:14:41;16.70;99.90
31783;DHT22;18351;47.560;9.708;2022-10-17T10:17:27;16.70;99.90
31783;DHT22;18351;47.560;9.708;2022-10-17T10:19:53;16.70;99.90
31783;DHT22;18351;47.560;9.708;2022-10-17T10:22:19;16.70;99.90
31783;DHT22;18351;47.560;9.708;2022-10-17T10:24:47;16.90;99.90
31783;DHT22;18351;47.560;9.708;2022-10-17T10:27:30;17.10;99.90
31783;DHT22;18351;47.560;9.708;2022-10-17T10:29:56;17.20;99.90
31783;DHT22;18351;47.560;9.708;2022-10-17T10:34:57;17.40;99.90
31783;DHT22;18351;47.560;9.708;2022-10-17T10:37:32;17.50;99.90
31783;DHT22;18351;47.560;9.708;2022-10-17T10:39:58;17.70;99.90
31783;DHT22;18351;47.560;9.708;2022-10-17T10:44:51;17.80;99.90
31783;DHT22;18351;47.560;9.708;2022-10-17T10:47:24;17.90;99.90
31783;DHT22;18351;47.560;9.708;2022-10-17T10:49:51;17.90;99.90
31783;DHT22;18351;47.560;9.708;2022-10-17T10:52:23;18.00;99.90
31783;DHT22;18351;47.560;9.708;2022-10-17T10:54:56;18.10;99.90
31783;DHT22;18351;47.560;9.708;2022-10-17T10:57:24;18.20;99.90
31783;DHT22;18351;47.560;9.708;2022-10-17T11:00:12;18.30;99.90
31783;DHT22;18351;47.560;9.708;2022-10-17T11:02:43;18.50;99.90
31783;DHT22;18351;47.560;9.708;2022-10-17T11:07:37;18.70;99.90
31783;DHT22;18351;47.560;9.708;2022-10-17T11:12:47;18.90;99.90
31783;DHT22;18351;47.560;9.708;2022-10-17T11:22:53;19.30;99.90
31783;DHT22;18351;47.560;9.708;2022-10-17T11:28:01;19.80;99.90
31783;DHT22;18351;47.560;9.708;2022-10-17T11:30:30;20.00;99.90
31783;DHT22;18351;47.560;9.708;2022-10-17T11:33:00;20.00;99.90
31783;DHT22;18351;47.560;9.708;2022-10-17T11:40:31;20.30;99.90
31783;DHT22;18351;47.560;9.708;2022-10-17T11:43:05;20.30;99.90
31783;DHT22;18351;47.560;9.708;2022-10-17T11:45:34;20.40;99.90
31783;DHT22;18351;47.560;9.708;2022-10-17T11:48:03;20.40;99.90
31783;DHT22;18351;47.560;9.708;2022-10-17T11:50:31;20.40;99.90
31783;DHT22;18351;47.560;9.708;2022-10-17T11:53:02;20.40;99.90
31783;DHT22;18351;47.560;9.708;2022-10-17T11:55:30;20.50;99.90
31783;DHT22;18351;47.560;9.708;2022-10-17T11:58:11;20.50;99.90
31783;DHT22;18351;47.560;9.708;2022-10-17T12:03:17;20.50;99.90
31783;DHT22;18351;47.560;9.708;2022-10-17T12:08:17;20.60;99.90
31783;DHT22;18351;47.560;9.708;2022-10-17T12:13:45;20.60;99.90
31783;DHT22;18351;47.560;9.708;2022-10-17T12:18:45;20.80;99.90
31783;DHT22;18351;47.560;9.708;2022-10-17T12:21:11;20.80;99.90
31783;DHT22;18351;47.560;9.708;2022-10-17T12:23:37;20.90;99.90
31783;DHT22;18351;47.560;9.708;2022-10-17T12:26:04;21.00;99.90
31783;DHT22;18351;47.560;9.708;2022-10-17T12:28:30;21.10;99.90
31783;DHT22;18351;47.560;9.708;2022-10-17T12:30:57;21.00;99.90
31783;DHT22;18351;47.560;9.708;2022-10-17T12:33:26;21.00;99.90
31783;DHT22;18351;47.560;9.708;2022-10-17T12:38:36;21.20;99.90
31783;DHT22;18351;47.560;9.708;2022-10-17T12:41:02;21.30;99.90
31783;DHT22;18351;47.560;9.708;2022-10-17T12:45:57;21.40;99.90
31783;DHT22;18351;47.560;9.708;2022-10-17T12:56:00;21.40;99.90
31783;DHT22;18351;47.560;9.708;2022-10-17T12:58:26;21.40;99.90
31783;DHT22;18351;47.560;9.708;2022-10-17T13:00:53;21.50;99.90
31783;DHT22;18351;47.560;9.708;2022-10-17T13:03:52;21.60;99.90
31783;DHT22;18351;47.560;9.708;2022-10-17T13:06:34;21.60;99.90
31783;DHT22;18351;47.560;9.708;2022-10-17T13:09:04;21.60;99.90
31783;DHT22;18351;47.560;9.708;2022-10-17T13:11:31;21.60;99.90
31783;DHT22;18351;47.560;9.708;2022-10-17T13:13:58;21.60;99.90
31783;DHT22;18351;47.560;9.708;2022-10-17T13:18:52;21.60;99.90
31783;DHT22;18351;47.560;9.708;2022-10-17T13:21:18;21.60;99.90
31783;DHT22;18351;47.560;9.708;2022-10-17T13:23:44;21.60;99.90
31783;DHT22;18351;47.560;9.708;2022-10-17T13:26:13;21.70;99.90
31783;DHT22;18351;47.560;9.708;2022-10-17T13:28:39;21.70;99.90
31783;DHT22;18351;47.560;9.708;2022-10-17T13:31:05;21.70;99.90
31783;DHT22;18351;47.560;9.708;2022-10-17T13:33:34;21.60;99.90
31783;DHT22;18351;47.560;9.708;2022-10-17T13:36:01;21.70;99.90
31783;DHT22;18351;47.560;9.708;2022-10-17T13:38:28;21.60;99.90
31783;DHT22;18351;47.560;9.708;2022-10-17T13:40:54;21.50;99.90
31783;DHT22;18351;47.560;9.708;2022-10-17T13:43:20;21.50;99.90
31783;DHT22;18351;47.560;9.708;2022-10-17T13:45:49;21.40;99.90
31783;DHT22;18351;47.560;9.708;2022-10-17T13:48:20;21.40;99.90
31783;DHT22;18351;47.560;9.708;2022-10-17T13:50:46;21.50;99.90
31783;DHT22;18351;47.560;9.708;2022-10-17T13:53:16;21.40;99.90
31783;DHT22;18351;47.560;9.708;2022-10-17T13:58:16;21.30;99.90
31783;DHT22;18351;47.560;9.708;2022-10-17T14:00:51;21.30;99.90
31783;DHT22;18351;47.560;9.708;2022-10-17T14:03:20;21.20;99.90
31783;DHT22;18351;47.560;9.708;2022-10-17T14:08:31;21.20;99.90
31783;DHT22;18351;47.560;9.708;2022-10-17T14:10:57;21.10;99.90
31783;DHT22;18351;47.560;9.708;2022-10-17T14:13:27;21.10;99.90
31783;DHT22;18351;47.560;9.708;2022-10-17T14:15:53;21.20;99.90
31783;DHT22;18351;47.560;9.708;2022-10-17T14:18:20;21.20;99.90
31783;DHT22;18351;47.560;9.708;2022-10-17T14:20:46;21.20;99.90
31783;DHT22;18351;47.560;9.708;2022-10-17T14:28:49;21.10;99.90
31783;DHT22;18351;47.560;9.708;2022-10-17T14:31:19;21.00;99.90
31783;DHT22;18351;47.560;9.708;2022-10-17T14:33:46;21.00;99.90
31783;DHT22;18351;47.560;9.708;2022-10-17T14:36:12;21.00;99.90
31783;DHT22;18351;47.560;9.708;2022-10-17T14:38:40;20.90;99.90
31783;DHT22;18351;47.560;9.708;2022-10-17T14:41:12;20.90;99.90
31783;DHT22;18351;47.560;9.708;2022-10-17T14:43:39;20.80;99.90
31783;DHT22;18351;47.560;9.708;2022-10-17T14:46:04;20.80;99.90
31783;DHT22;18351;47.560;9.708;2022-10-17T14:48:30;20.80;99.90
31783;DHT22;18351;47.560;9.708;2022-10-17T14:53:30;20.80;99.90
31783;DHT22;18351;47.560;9.708;2022-10-17T14:55:57;20.70;99.90
31783;DHT22;18351;47.560;9.708;2022-10-17T14:58:26;20.70;99.90
31783;DHT22;18351;47.560;9.708;2022-10-17T15:00:52;20.60;99.90
31783;DHT22;18351;47.560;9.708;2022-10-17T15:03:18;20.50;99.90
31783;DHT22;18351;47.560;9.708;2022-10-17T15:05:47;20.30;99.90
31783;DHT22;18351;47.560;9.708;2022-10-17T15:08:14;20.30;99.90
31783;DHT22;18351;47.560;9.708;2022-10-17T15:10:40;20.30;99.90
31783;DHT22;18351;47.560;9.708;2022-10-17T15:13:06;20.20;99.90
31783;DHT22;18351;47.560;9.708;2022-10-17T15:15:32;20.20;99.90
31783;DHT22;18351;47.560;9.708;2022-10-17T15:17:58;20.10;99.90
31783;DHT22;18351;47.560;9.708;2022-10-17T15:20:24;20.00;99.90
31783;DHT22;18351;47.560;9.708;2022-10-17T15:22:58;20.00;99.90
31783;DHT22;18351;47.560;9.708;2022-10-17T15:25:24;19.90;99.90
31783;DHT22;18351;47.560;9.708;2022-10-17T15:27:50;19.80;99.90
31783;DHT22;18351;47.560;9.708;2022-10-17T15:30:17;19.80;99.90
31783;DHT22;18351;47.560;9.708;2022-10-17T15:32:43;19.70;99.90
31783;DHT22;18351;47.560;9.708;2022-10-17T15:35:09;19.70;99.90
31783;DHT22;18351;47.560;9.708;2022-10-17T15:37:34;19.70;99.90
31783;DHT22;18351;47.560;9.708;2022-10-17T15:40:00;19.50;99.90
31783;DHT22;18351;47.560;9.708;2022-10-17T15:42:27;19.50;99.90
31783;DHT22;18351;47.560;9.708;2022-10-17T15:44:52;19.20;99.90
31783;DHT22;18351;47.560;9.708;2022-10-17T15:47:21;19.10;99.90
31783;DHT22;18351;47.560;9.708;2022-10-17T15:49:47;19.00;99.90
31783;DHT22;18351;47.560;9.708;2022-10-17T15:52:13;19.00;99.90
31783;DHT22;18351;47.560;9.708;2022-10-17T15:54:38;18.90;99.90
31783;DHT22;18351;47.560;9.708;2022-10-17T15:57:04;19.00;99.90
31783;DHT22;18351;47.560;9.708;2022-10-17T15:59:30;19.00;99.90
31783;DHT22;18351;47.560;9.708;2022-10-17T16:01:57;19.00;99.90
31783;DHT22;18351;47.560;9.708;2022-10-17T16:04:22;18.90;99.90
31783;DHT22;18351;47.560;9.708;2022-10-17T16:06:51;18.80;99.90
31783;DHT22;18351;47.560;9.708;2022-10-17T16:09:16;18.80;99.90
31783;DHT22;18351;47.560;9.708;2022-10-17T16:11:42;18.70;99.90
31783;DHT22;18351;47.560;9.708;2022-10-17T16:14:14;18.60;99.90
31783;DHT22;18351;47.560;9.708;2022-10-17T16:16:40;18.40;99.90
31783;DHT22;18351;47.560;9.708;2022-10-17T16:19:06;18.40;99.90
31783;DHT22;18351;47.560;9.708;2022-10-17T16:21:32;18.30;99.90
31783;DHT22;18351;47.560;9.708;2022-10-17T16:23:58;18.20;99.90
31783;DHT22;18351;47.560;9.708;2022-10-17T16:26:25;18.10;99.90
31783;DHT22;18351;47.560;9.708;2022-10-17T16:28:50;18.00;99.90
31783;DHT22;18351;47.560;9.708;2022-10-17T16:31:18;17.80;99.90
31783;DHT22;18351;47.560;9.708;2022-10-17T16:33:44;17.80;99.90
31783;DHT22;18351;47.560;9.708;2022-10-17T16:36:09;17.70;99.90
31783;DHT22;18351;47.560;9.708;2022-10-17T16:38:35;17.60;99.90
31783;DHT22;18351;47.560;9.708;2022-10-17T16:41:00;17.40;99.90
31783;DHT22;18351;47.560;9.708;2022-10-17T16:43:26;17.10;99.90
31783;DHT22;18351;47.560;9.708;2022-10-17T16:45:51;16.80;99.90
31783;DHT22;18351;47.560;9.708;2022-10-17T16:48:17;16.60;99.90
31783;DHT22;18351;47.560;9.708;2022-10-17T16:50:42;16.40;99.90
31783;DHT22;18351;47.560;9.708;2022-10-17T16:53:08;16.30;99.90
31783;DHT22;18351;47.560;9.708;2022-10-17T16:55:33;16.10;99.90
31783;DHT22;18351;47.560;9.708;2022-10-17T16:57:59;16.00;99.90
31783;DHT22;18351;47.560;9.708;2022-10-17T17:00:25;15.90;99.90
31783;DHT22;18351;47.560;9.708;2022-10-17T17:02:51;15.80;99.90
31783;DHT22;18351;47.560;9.708;2022-10-17T17:05:16;15.70;99.90
31783;DHT22;18351;47.560;9.708;2022-10-17T17:07:42;15.60;99.90
31783;DHT22;18351;47.560;9.708;2022-10-17T17:10:07;15.60;99.90
31783;DHT22;18351;47.560;9.708;2022-10-17T17:12:33;15.50;99.90
31783;DHT22;18351;47.560;9.708;2022-10-17T17:14:59;15.50;99.90
31783;DHT22;18351;47.560;9.708;2022-10-17T17:17:24;15.40;99.90
31783;DHT22;18351;47.560;9.708;2022-10-17T17:19:50;15.30;99.90
31783;DHT22;18351;47.560;9.708;2022-10-17T17:22:15;15.30;99.90
31783;DHT22;18351;47.560;9.708;2022-10-17T17:24:41;15.20;99.90
31783;DHT22;18351;47.560;9.708;2022-10-17T17:27:06;15.20;99.90
31783;DHT22;18351;47.560;9.708;2022-10-17T17:29:32;15.10;99.90
31783;DHT22;18351;47.560;9.708;2022-10-17T17:31:57;15.00;99.90
31783;DHT22;18351;47.560;9.708;2022-10-17T17:34:23;15.00;99.90
31783;DHT22;18351;47.560;9.708;2022-10-17T17:36:48;15.00;99.90
31783;DHT22;18351;47.560;9.708;2022-10-17T17:39:14;14.80;99.90